createdAt,value
2018-05-21T00:00:14.065Z,2.67
2018-05-21T00:02:44.595Z,3.50
2018-05-21T00:05:12.050Z,3.08
2018-05-21T00:07:40.441Z,3.40
2018-05-21T00:10:07.940Z,3.80
2018-05-21T00:12:35.470Z,4.23
2018-05-21T00:15:02.912Z,2.83
2018-05-21T00:17:30.673Z,2.60
2018-05-21T00:20:01.817Z,3.23
2018-05-21T00:22:30.905Z,3.50
2018-05-21T00:24:58.367Z,3.40
2018-05-21T00:27:25.872Z,4.10
2018-05-21T00:29:53.353Z,2.87
2018-05-21T00:32:20.815Z,3.80
2018-05-21T00:34:59.567Z,3.10
2018-05-21T00:37:27.025Z,4.33
2018-05-21T00:39:59.176Z,4.30
2018-05-21T00:42:26.660Z,4.20
2018-05-21T00:44:54.159Z,3.55
2018-05-21T00:47:21.636Z,3.55
2018-05-21T00:49:49.112Z,4.03
2018-05-21T00:52:16.589Z,3.10
2018-05-21T00:54:46.704Z,3.72
2018-05-21T00:57:14.199Z,3.27
2018-05-21T00:59:41.663Z,4.62
2018-05-21T01:02:10.088Z,3.80
2018-05-21T01:04:37.543Z,3.80
2018-05-21T01:07:05.027Z,3.97
2018-05-21T01:09:32.507Z,3.67
2018-05-21T01:12:00.016Z,3.90
2018-05-21T01:14:27.472Z,3.63
2018-05-21T01:16:54.927Z,3.50
2018-05-21T01:19:25.300Z,4.20
2018-05-21T01:21:52.721Z,3.77
2018-05-21T01:24:20.377Z,4.40
2018-05-21T01:26:48.748Z,3.90
2018-05-21T01:29:16.209Z,3.70
2018-05-21T01:31:43.864Z,4.27
2018-05-21T01:34:11.327Z,3.80
2018-05-21T01:36:42.681Z,4.30
2018-05-21T01:39:10.934Z,3.47
2018-05-21T01:41:38.417Z,3.70
2018-05-21T01:44:05.893Z,3.70
2018-05-21T01:46:33.385Z,4.20
2018-05-21T01:49:00.873Z,4.87
2018-05-21T01:51:32.840Z,4.13
2018-05-21T01:54:00.289Z,4.27
2018-05-21T01:56:27.784Z,4.78
2018-05-21T01:58:56.028Z,4.60
2018-05-21T02:01:23.506Z,4.80
2018-05-21T02:03:50.976Z,4.60
2018-05-21T02:06:22.596Z,4.40
2018-05-21T02:08:50.665Z,4.73
2018-05-21T02:11:18.155Z,4.40
2018-05-21T02:13:45.648Z,5.27
2018-05-21T02:16:13.112Z,4.80
2018-05-21T02:18:40.589Z,4.40
2018-05-21T02:21:08.043Z,4.97
2018-05-21T02:23:36.808Z,5.45
2018-05-21T02:26:04.289Z,5.40
2018-05-21T02:28:31.768Z,5.70
2018-05-21T02:30:59.273Z,4.40
2018-05-21T02:33:26.737Z,5.55
2018-05-21T02:35:57.733Z,5.00
2018-05-21T02:38:26.370Z,5.57
2018-05-21T02:40:53.857Z,4.70
2018-05-21T02:43:21.529Z,5.80
2018-05-21T02:45:50.695Z,5.77
2018-05-21T02:48:18.173Z,5.80
2018-05-21T02:50:49.623Z,5.60
2018-05-21T02:53:17.085Z,6.20
2018-05-21T02:55:44.566Z,5.53
2018-05-21T02:58:12.803Z,6.90
2018-05-21T03:00:40.265Z,5.90
2018-05-21T03:03:07.732Z,5.97
2018-05-21T03:05:38.941Z,6.07
2018-05-21T03:08:06.403Z,5.90
2018-05-21T03:10:36.228Z,6.90
2018-05-21T03:13:03.710Z,5.70
2018-05-21T03:15:31.184Z,6.00
2018-05-21T03:17:59.456Z,5.70
2018-05-21T03:20:37.440Z,5.80
2018-05-21T03:23:04.946Z,6.13
2018-05-21T03:25:32.434Z,6.60
2018-05-21T03:28:00.732Z,7.40
2018-05-21T03:30:28.355Z,6.10
2018-05-21T03:32:55.853Z,6.60
2018-05-21T03:35:25.018Z,5.87
2018-05-21T03:37:52.477Z,5.93
2018-05-21T03:40:19.960Z,6.80
2018-05-21T03:42:47.413Z,5.37
2018-05-21T03:45:14.890Z,6.22
2018-05-21T03:47:42.348Z,6.30
2018-05-21T03:50:09.828Z,6.30
2018-05-21T03:52:37.307Z,5.33
2018-05-21T03:55:04.789Z,6.55
2018-05-21T03:57:32.257Z,6.53
2018-05-21T04:00:11.609Z,5.90
2018-05-21T04:02:51.563Z,5.20
2018-05-21T04:05:19.311Z,6.23
2018-05-21T04:07:46.760Z,5.10
2018-05-21T04:10:15.361Z,6.20
2018-05-21T04:12:42.837Z,5.80
2018-05-21T04:15:10.831Z,5.75
2018-05-21T04:17:38.318Z,5.47
2018-05-21T04:20:05.835Z,6.20
2018-05-21T04:22:34.066Z,5.53
2018-05-21T04:25:01.555Z,5.90
2018-05-21T04:27:29.289Z,4.75
2018-05-21T04:29:56.762Z,5.30
2018-05-21T04:32:25.432Z,5.23
2018-05-21T04:34:53.229Z,5.40
2018-05-21T04:37:28.135Z,5.40
2018-05-21T04:39:55.595Z,5.20
2018-05-21T04:42:23.110Z,4.53
2018-05-21T04:44:50.585Z,4.60
2018-05-21T04:47:18.053Z,5.15
2018-05-21T04:49:45.515Z,4.93
2018-05-21T04:52:16.243Z,4.70
2018-05-21T04:54:43.720Z,4.72
2018-05-21T04:57:12.726Z,4.97
2018-05-21T04:59:40.184Z,3.92
2018-05-21T05:02:07.728Z,4.60
2018-05-21T05:04:35.491Z,4.83
2018-05-21T05:07:02.958Z,4.47
2018-05-21T05:09:30.505Z,5.80
2018-05-21T05:11:59.140Z,5.10
2018-05-21T05:14:26.620Z,4.70
2018-05-21T05:16:54.081Z,4.20
2018-05-21T05:19:21.561Z,4.43
2018-05-21T05:21:49.013Z,4.00
2018-05-21T05:24:16.496Z,4.97
2018-05-21T05:26:44.833Z,5.10
2018-05-21T05:29:14.456Z,4.60
2018-05-21T05:31:42.708Z,4.20
2018-05-21T05:34:10.191Z,4.47
2018-05-21T05:36:37.652Z,5.17
2018-05-21T05:39:09.308Z,5.10
2018-05-21T05:41:37.715Z,4.13
2018-05-21T05:44:05.172Z,4.60
2018-05-21T05:46:32.650Z,4.70
2018-05-21T05:49:00.092Z,5.07
2018-05-21T05:51:27.708Z,4.43
2018-05-21T05:53:55.182Z,4.37
2018-05-21T05:56:22.709Z,5.40
2018-05-21T05:58:50.178Z,4.55
2018-05-21T06:01:17.681Z,5.03
2018-05-21T06:03:46.400Z,4.35
2018-05-21T06:06:13.895Z,4.90
2018-05-21T06:08:41.361Z,4.23
2018-05-21T06:11:13.225Z,4.83
2018-05-21T06:13:40.757Z,4.35
2018-05-21T06:16:08.223Z,5.90
2018-05-21T06:18:35.796Z,4.30
2018-05-21T06:21:04.078Z,5.30
2018-05-21T06:23:31.539Z,5.25
2018-05-21T06:26:03.314Z,5.40
2018-05-21T06:28:30.788Z,4.90
2018-05-21T06:30:58.287Z,5.13
2018-05-21T06:33:25.788Z,5.47
2018-05-21T06:35:53.291Z,4.77
2018-05-21T06:38:20.874Z,5.63
2018-05-21T06:40:53.612Z,5.20
2018-05-21T06:43:21.080Z,5.50
2018-05-21T06:45:49.523Z,5.60
2018-05-21T06:48:17.206Z,4.43
2018-05-21T06:50:44.693Z,5.47
2018-05-21T06:53:12.173Z,5.70
2018-05-21T06:55:43.928Z,5.00
2018-05-21T06:58:11.392Z,5.23
2018-05-21T07:00:38.975Z,5.97
2018-05-21T07:03:06.436Z,5.60
2018-05-21T07:05:33.940Z,5.03
2018-05-21T07:08:01.411Z,4.93
2018-05-21T07:10:28.868Z,5.53
2018-05-21T07:12:56.369Z,6.30
2018-05-21T07:15:23.877Z,4.43
2018-05-21T07:17:51.348Z,5.97
2018-05-21T07:20:18.804Z,5.50
2018-05-21T07:22:47.983Z,6.00
2018-05-21T07:25:15.463Z,5.23
2018-05-21T07:27:43.740Z,5.40
2018-05-21T07:30:11.193Z,5.43
2018-05-21T07:32:38.688Z,4.77
2018-05-21T07:35:06.523Z,5.40
2018-05-21T07:37:34.009Z,5.47
2018-05-21T07:40:05.118Z,4.93
2018-05-21T07:42:32.602Z,4.47
2018-05-21T07:45:00.109Z,5.13
2018-05-21T07:47:27.590Z,5.05
2018-05-21T07:49:55.175Z,5.18
2018-05-21T07:52:22.632Z,4.70
2018-05-21T07:54:50.502Z,5.22
2018-05-21T07:57:17.961Z,5.78
2018-05-21T07:59:45.450Z,5.63
2018-05-21T08:02:12.920Z,5.83
2018-05-21T08:04:40.430Z,5.22
2018-05-21T08:07:07.932Z,8.05
2018-05-21T08:09:35.444Z,4.30
2018-05-21T08:12:04.920Z,5.77
2018-05-21T08:14:33.184Z,5.35
2018-05-21T08:17:00.649Z,4.60
2018-05-21T08:19:28.840Z,6.28
2018-05-21T08:21:56.304Z,5.20
2018-05-21T08:24:24.569Z,4.93
2018-05-21T08:26:56.553Z,4.73
2018-05-21T08:29:23.992Z,4.72
2018-05-21T08:31:51.487Z,10.40
2018-05-21T08:34:18.951Z,4.53
2018-05-21T08:36:46.482Z,5.00
2018-05-21T08:39:14.708Z,4.78
2018-05-21T08:41:47.404Z,5.70
2018-05-21T08:44:14.901Z,4.53
2018-05-21T08:46:42.361Z,5.07
2018-05-21T08:49:09.820Z,4.93
2018-05-21T08:51:37.309Z,4.57
2018-05-21T08:54:05.013Z,6.10
2018-05-21T08:56:36.771Z,4.53
2018-05-21T08:59:04.124Z,4.80
2018-05-21T09:01:31.622Z,4.63
2018-05-21T09:03:59.085Z,4.60
2018-05-21T09:06:26.603Z,4.10
2018-05-21T09:08:54.105Z,4.33
2018-05-21T09:11:22.149Z,4.95
2018-05-21T09:13:49.645Z,4.27
2018-05-21T09:16:17.218Z,4.40
2018-05-21T09:18:44.649Z,4.87
2018-05-21T09:21:12.231Z,4.20
2018-05-21T09:23:39.719Z,5.53
2018-05-21T09:26:07.311Z,5.07
2018-05-21T09:28:34.696Z,4.82
2018-05-21T09:31:02.152Z,4.60
2018-05-21T09:33:30.056Z,4.80
2018-05-21T09:35:57.520Z,4.57
2018-05-21T09:38:25.793Z,5.23
2018-05-21T09:40:54.963Z,3.73
2018-05-21T09:43:22.425Z,4.22
2018-05-21T09:45:49.924Z,5.47
2018-05-21T09:48:17.387Z,4.50
2018-05-21T09:50:45.606Z,5.03
2018-05-21T09:53:13.130Z,3.87
2018-05-21T09:55:40.601Z,4.27
2018-05-21T09:58:08.640Z,3.75
2018-05-21T10:00:36.127Z,4.73
2018-05-21T10:03:03.580Z,4.67
2018-05-21T10:05:31.834Z,3.60
2018-05-21T10:07:59.312Z,4.63
2018-05-21T10:10:27.848Z,4.93
2018-05-21T10:12:55.677Z,4.67
2018-05-21T10:15:24.104Z,4.00
2018-05-21T10:17:52.275Z,3.95
2018-05-21T10:20:20.528Z,4.10
2018-05-21T10:22:49.094Z,4.30
2018-05-21T10:25:17.900Z,4.00
2018-05-21T10:27:45.364Z,4.40
2018-05-21T10:30:13.321Z,5.13
2018-05-21T10:32:40.820Z,4.53
2018-05-21T10:35:09.080Z,4.65
2018-05-21T10:37:38.433Z,3.90
2018-05-21T10:40:06.668Z,4.30
2018-05-21T10:42:34.170Z,4.72
2018-05-21T10:45:03.512Z,4.60
2018-05-21T10:47:32.563Z,4.40
2018-05-21T10:50:00.037Z,4.70
2018-05-21T10:52:28.467Z,3.75
2018-05-21T10:54:56.518Z,4.40
2018-05-21T10:57:24.061Z,3.97
2018-05-21T10:59:51.515Z,3.83
2018-05-21T11:02:19.980Z,4.67
2018-05-21T11:04:47.493Z,4.73
2018-05-21T11:07:15.714Z,3.62
2018-05-21T11:09:43.221Z,3.87
2018-05-21T11:12:11.491Z,3.97
2018-05-21T11:14:41.316Z,3.40
2018-05-21T11:17:09.524Z,4.40
2018-05-21T11:19:36.997Z,4.10
2018-05-21T11:22:05.028Z,4.37
2018-05-21T11:24:33.603Z,3.70
2018-05-21T11:27:01.432Z,5.30
2018-05-21T11:29:30.255Z,4.03
2018-05-21T11:31:57.852Z,4.43
2018-05-21T11:34:26.259Z,4.30
2018-05-21T11:36:54.480Z,5.68
2018-05-21T11:39:21.932Z,3.67
2018-05-21T11:41:49.436Z,4.20
2018-05-21T11:44:20.896Z,4.70
2018-05-21T11:46:48.383Z,4.22
2018-05-21T11:49:15.839Z,4.43
2018-05-21T11:51:44.703Z,3.65
2018-05-21T11:54:12.160Z,4.27
2018-05-21T11:56:39.648Z,7.27
2018-05-21T11:59:13.635Z,5.43
2018-05-21T12:01:41.103Z,3.97
2018-05-21T12:04:08.837Z,4.10
2018-05-21T12:06:37.131Z,4.40
2018-05-21T12:09:04.795Z,4.00
2018-05-21T12:11:32.256Z,4.87
2018-05-21T12:13:59.740Z,3.57
2018-05-21T12:16:27.615Z,4.40
2018-05-21T12:18:55.158Z,4.50
2018-05-21T12:21:23.411Z,4.13
2018-05-21T12:23:50.876Z,4.43
2018-05-21T12:26:18.324Z,4.17
2018-05-21T12:28:45.849Z,4.17
2018-05-21T12:31:17.458Z,4.60
2018-05-21T12:33:44.942Z,3.93
2018-05-21T12:36:12.440Z,3.97
2018-05-21T12:38:39.934Z,4.43
2018-05-21T12:41:08.242Z,4.65
2018-05-21T12:43:35.752Z,4.20
2018-05-21T12:46:04.021Z,4.50
2018-05-21T12:48:31.646Z,5.05
2018-05-21T12:50:59.211Z,4.43
2018-05-21T12:53:26.724Z,5.00
2018-05-21T12:55:55.903Z,4.30
2018-05-21T12:58:23.430Z,4.45
2018-05-21T13:00:50.935Z,4.47
2018-05-21T13:03:18.477Z,4.40
2018-05-21T13:05:45.953Z,4.20
2018-05-21T13:08:14.243Z,3.78
2018-05-21T13:10:41.693Z,6.47
2018-05-21T13:13:09.927Z,4.12
2018-05-21T13:15:37.441Z,3.77
2018-05-21T13:18:05.003Z,3.90
2018-05-21T13:20:32.504Z,3.75
2018-05-21T13:22:59.972Z,4.30
2018-05-21T13:25:27.482Z,3.83
2018-05-21T13:27:54.968Z,5.10
2018-05-21T13:30:23.412Z,4.30
2018-05-21T13:32:51.666Z,3.92
2018-05-21T13:35:19.177Z,4.27
2018-05-21T13:37:46.688Z,4.50
2018-05-21T13:40:14.988Z,4.30
2018-05-21T13:42:43.648Z,4.10
2018-05-21T13:45:11.160Z,3.97
2018-05-21T13:47:38.645Z,4.10
2018-05-21T13:50:06.137Z,4.37
2018-05-21T13:52:34.431Z,3.70
2018-05-21T13:55:01.890Z,4.17
2018-05-21T13:57:29.384Z,4.12
2018-05-21T13:59:56.865Z,3.87
2018-05-21T14:02:24.426Z,4.80
2018-05-21T14:04:51.950Z,4.87
2018-05-21T14:07:19.417Z,4.20
2018-05-21T14:09:46.924Z,4.67
2018-05-21T14:12:14.425Z,4.30
2018-05-21T14:14:41.956Z,4.90
2018-05-21T14:17:10.265Z,4.20
2018-05-21T14:19:37.750Z,4.23
2018-05-21T14:22:05.286Z,4.37
2018-05-21T14:24:32.740Z,4.20
2018-05-21T14:27:00.205Z,4.07
2018-05-21T14:29:27.746Z,4.83
2018-05-21T14:31:55.192Z,4.37
2018-05-21T14:34:24.392Z,4.93
2018-05-21T14:36:51.956Z,4.50
2018-05-21T14:39:19.519Z,4.43
2018-05-21T14:41:47.138Z,4.60
2018-05-21T14:44:15.429Z,5.43
2018-05-21T14:46:42.960Z,5.37
2018-05-21T14:49:10.464Z,4.65
2018-05-21T14:51:38.010Z,3.43
2018-05-21T14:54:05.668Z,3.80
2018-05-21T14:56:33.253Z,3.67
2018-05-21T14:59:00.790Z,3.92
2018-05-21T15:01:28.314Z,4.18
2018-05-21T15:03:56.816Z,3.58
2018-05-21T15:06:24.435Z,3.70
2018-05-21T15:08:51.928Z,4.23
2018-05-21T15:11:19.418Z,3.80
2018-05-21T15:13:47.002Z,4.27
2018-05-21T15:16:14.524Z,3.90
2018-05-21T15:18:42.159Z,4.00
2018-05-21T15:21:10.063Z,4.43
2018-05-21T15:23:37.586Z,4.90
2018-05-21T15:26:05.232Z,4.57
2018-05-21T15:28:33.539Z,4.47
2018-05-21T15:31:01.641Z,4.00
2018-05-21T15:33:33.565Z,4.60
2018-05-21T15:36:01.201Z,4.07
2018-05-21T15:38:29.224Z,4.70
2018-05-21T15:40:56.832Z,3.95
2018-05-21T15:43:24.486Z,4.68
2018-05-21T15:45:51.973Z,5.63
2018-05-21T15:48:22.795Z,4.30
2018-05-21T15:50:50.260Z,4.23
2018-05-21T15:53:17.769Z,3.60
2018-05-21T15:55:45.243Z,3.97
2018-05-21T15:58:13.178Z,3.70
2018-05-21T16:00:40.637Z,4.53
2018-05-21T16:03:11.900Z,3.93
2018-05-21T16:05:42.787Z,3.50
2018-05-21T16:08:10.250Z,3.50
2018-05-21T16:10:37.753Z,4.30
2018-05-21T16:13:05.212Z,4.00
2018-05-21T16:15:33.582Z,4.60
2018-05-21T16:18:01.048Z,4.55
2018-05-21T16:20:31.711Z,4.10
2018-05-21T16:22:59.225Z,4.12
2018-05-21T16:25:26.750Z,4.23
2018-05-21T16:27:54.241Z,4.17
2018-05-21T16:30:21.789Z,3.70
2018-05-21T16:32:49.330Z,4.00
2018-05-21T16:35:22.149Z,4.60
2018-05-21T16:37:49.652Z,3.50
2018-05-21T16:40:17.142Z,4.28
2018-05-21T16:42:44.608Z,4.47
2018-05-21T16:45:12.632Z,4.15
2018-05-21T16:47:40.096Z,4.47
2018-05-21T16:50:07.650Z,4.00
2018-05-21T16:52:35.149Z,5.10
2018-05-21T16:55:02.707Z,4.37
2018-05-21T16:57:30.196Z,4.00
2018-05-21T16:59:57.685Z,4.67
2018-05-21T17:02:25.170Z,5.00
2018-05-21T17:05:00.376Z,4.27
2018-05-21T17:07:27.893Z,4.43
2018-05-21T17:09:55.628Z,4.00
2018-05-21T17:12:23.259Z,4.32
2018-05-21T17:14:52.272Z,5.05
2018-05-21T17:17:19.803Z,4.43
2018-05-21T17:19:54.702Z,5.33
2018-05-21T17:22:22.644Z,4.80
2018-05-21T17:24:50.909Z,4.30
2018-05-21T17:27:19.127Z,4.47
2018-05-21T17:29:47.852Z,4.44
2018-05-21T17:32:15.310Z,4.68
2018-05-21T17:34:46.616Z,3.65
2018-05-21T17:37:14.157Z,5.07
2018-05-21T17:39:42.031Z,4.47
2018-05-21T17:42:09.518Z,4.05
2018-05-21T17:44:37.173Z,4.37
2018-05-21T17:47:04.728Z,5.40
2018-05-21T17:49:33.205Z,4.00
2018-05-21T17:52:02.943Z,4.00
2018-05-21T17:54:30.388Z,4.40
2018-05-21T17:56:57.913Z,5.37
2018-05-21T17:59:26.937Z,5.20
2018-05-21T18:01:56.525Z,4.62
2018-05-21T18:04:24.065Z,3.65
2018-05-21T18:06:55.888Z,4.43
2018-05-21T18:09:25.092Z,4.10
2018-05-21T18:11:52.648Z,5.10
2018-05-21T18:14:21.484Z,5.17
2018-05-21T18:16:49.868Z,5.03
2018-05-21T18:19:17.374Z,4.50
2018-05-21T18:21:44.981Z,5.07
2018-05-21T18:24:12.491Z,4.93
2018-05-21T18:26:40.550Z,4.37
2018-05-21T18:29:08.909Z,4.32
2018-05-21T18:31:38.002Z,5.20
2018-05-21T18:34:07.208Z,4.30
2018-05-21T18:36:36.960Z,4.47
2018-05-21T18:39:06.824Z,4.60
2018-05-21T18:41:35.924Z,5.40
2018-05-21T18:44:03.450Z,4.60
2018-05-21T18:46:30.936Z,3.57
2018-05-21T18:48:59.408Z,4.07
2018-05-21T18:51:30.248Z,4.10
2018-05-21T18:53:57.799Z,4.20
2018-05-21T18:56:26.951Z,6.36
2018-05-21T18:58:55.230Z,8.40
2018-05-21T19:01:23.563Z,4.53
2018-05-21T19:03:51.863Z,4.17
2018-05-21T19:06:22.352Z,3.75
2018-05-21T19:08:49.884Z,4.90
2018-05-21T19:11:17.466Z,4.07
2018-05-21T19:13:45.798Z,5.25
2018-05-21T19:16:13.341Z,5.10
2018-05-21T19:18:40.821Z,4.70
2018-05-21T19:21:08.346Z,4.27
2018-05-21T19:23:35.806Z,4.10
2018-05-21T19:26:03.905Z,5.15
2018-05-21T19:28:32.224Z,4.10
2018-05-21T19:30:59.692Z,4.63
2018-05-21T19:33:27.210Z,4.43
2018-05-21T19:35:54.740Z,4.20
2018-05-21T19:38:22.208Z,4.37
2018-05-21T19:40:51.720Z,5.37
2018-05-21T19:43:20.038Z,3.93
2018-05-21T19:45:47.570Z,4.40
2018-05-21T19:48:15.116Z,4.10
2018-05-21T19:50:43.202Z,3.87
2018-05-21T19:53:10.762Z,5.10
2018-05-21T19:55:38.566Z,4.20
2018-05-21T19:58:06.069Z,4.77
2018-05-21T20:00:34.358Z,4.33
2018-05-21T20:03:02.753Z,4.37
2018-05-21T20:05:31.419Z,4.22
2018-05-21T20:07:58.913Z,4.63
2018-05-21T20:10:28.029Z,4.25
2018-05-21T20:12:57.753Z,4.60
2018-05-21T20:15:26.122Z,4.30
2018-05-21T20:17:54.983Z,5.40
2018-05-21T20:20:35.328Z,5.23
2018-05-21T20:23:06.632Z,5.85
2018-05-21T20:25:35.084Z,4.84
2018-05-21T20:28:02.598Z,4.27
2018-05-21T20:30:30.869Z,5.00
2018-05-21T20:32:58.409Z,6.00
2018-05-21T20:35:25.889Z,4.87
2018-05-21T20:37:57.042Z,5.53
2018-05-21T20:40:25.292Z,5.47
2018-05-21T20:42:52.788Z,5.70
2018-05-21T20:45:20.294Z,5.18
2018-05-21T20:47:47.760Z,5.57
2018-05-21T20:50:15.231Z,6.12
2018-05-21T20:52:43.616Z,5.87
2018-05-21T20:55:11.940Z,6.50
2018-05-21T20:57:41.312Z,6.13
2018-05-21T21:00:08.867Z,5.00
2018-05-21T21:02:36.383Z,6.18
2018-05-21T21:05:04.769Z,5.93
2018-05-21T21:07:33.224Z,5.60
2018-05-21T21:10:01.473Z,5.87
2018-05-21T21:12:30.799Z,6.10
2018-05-21T21:14:58.334Z,6.45
2018-05-21T21:17:26.024Z,5.83
2018-05-21T21:19:53.525Z,6.60
2018-05-21T21:22:21.013Z,6.43
2018-05-21T21:24:48.476Z,6.07
2018-05-21T21:27:16.736Z,6.05
2018-05-21T21:29:44.227Z,5.70
2018-05-21T21:32:11.797Z,6.13
2018-05-21T21:34:39.342Z,6.37
2018-05-21T21:37:06.807Z,7.27
2018-05-21T21:39:37.872Z,5.10
2018-05-21T21:42:06.175Z,5.90
2018-05-21T21:44:33.739Z,5.57
2018-05-21T21:47:01.169Z,6.53
2018-05-21T21:49:28.644Z,6.57
2018-05-21T21:51:56.140Z,6.62
2018-05-21T21:54:23.869Z,6.60
2018-05-21T21:56:51.615Z,7.35
2018-05-21T21:59:20.104Z,6.83
2018-05-21T22:01:47.633Z,5.45
2018-05-21T22:04:15.104Z,6.20
2018-05-21T22:06:42.585Z,7.18
2018-05-21T22:09:14.648Z,6.40
2018-05-21T22:11:42.109Z,5.60
2018-05-21T22:14:10.385Z,6.40
2018-05-21T22:16:37.838Z,5.87
2018-05-21T22:19:05.296Z,5.37
2018-05-21T22:21:32.752Z,7.27
2018-05-21T22:24:00.203Z,5.30
2018-05-21T22:26:32.776Z,6.60
2018-05-21T22:29:01.022Z,5.70
2018-05-21T22:31:28.976Z,6.15
2018-05-21T22:33:56.439Z,5.78
2018-05-21T22:36:23.949Z,7.57
2018-05-21T22:38:52.193Z,6.60
2018-05-21T22:41:19.656Z,6.87
2018-05-21T22:43:47.143Z,6.03
2018-05-21T22:46:14.618Z,6.37
2018-05-21T22:48:42.939Z,5.75
2018-05-21T22:51:10.409Z,7.03
2018-05-21T22:53:37.884Z,6.23
2018-05-21T22:56:06.108Z,6.22
2018-05-21T22:58:33.612Z,6.20
2018-05-21T23:01:01.985Z,6.35
2018-05-21T23:03:29.458Z,5.80
2018-05-21T23:05:56.908Z,5.87
2018-05-21T23:08:24.572Z,5.60
2018-05-21T23:10:52.034Z,6.95
2018-05-21T23:13:19.485Z,6.60
2018-05-21T23:15:46.991Z,7.10
2018-05-21T23:18:14.438Z,5.17
2018-05-21T23:20:41.963Z,6.62
2018-05-21T23:23:10.337Z,6.37
2018-05-21T23:25:37.987Z,5.40
2018-05-21T23:28:05.501Z,6.33
2018-05-21T23:30:33.012Z,6.53
2018-05-21T23:33:00.473Z,5.20
2018-05-21T23:35:27.924Z,6.00
2018-05-21T23:37:55.413Z,6.40
2018-05-21T23:40:24.579Z,6.20
2018-05-21T23:42:52.066Z,5.65
2018-05-21T23:45:20.346Z,4.90
2018-05-21T23:47:49.516Z,5.50
2018-05-21T23:50:16.972Z,6.10
2018-05-21T23:52:44.482Z,5.55
2018-05-21T23:55:11.962Z,6.53
2018-05-21T23:57:39.427Z,5.80
